F/V Barracuda II — FMIF — position and weather

sailwx.info

Track history (hours):
 
Tides and Currents Weather Stations Pressure Air Temp Water Temp Dewpoint Dewpoint Depression Visibility Wind Speed Wind Dir Waves Ship Positions

F/V Barracuda II

Last reported at 2015-Mar-04 10:22 UTC. Time now 2015-Mar-04 11:20 UTC.
Position N 43°17' E 004°15'.

Length 23 m.

Type: Fishing. MMSI: 228236800.

Date/timePositionNaut miles runAvg speedWind from/ knotsBaromVisibWave heightAir tempDewpointWater temp
2015-Mar-04 10:22N 43°17' E 004°15'4 4.0
2015-Mar-04 09:25N 43°16' E 004°20'4 4.1
2015-Mar-04 08:30N 43°16' E 004°25'2 1.8
2015-Mar-04 07:28N 43°15' E 004°27'5 4.2
2015-Mar-04 06:15N 43°16' E 004°20'18 1.2
2015-Mar-03 15:33N 43°32' E 004°07'8 8.2
2015-Mar-03 14:31N 43°24' E 004°04'5 3.9
2015-Mar-03 13:10N 43°22' E 004°11'3 3.9
2015-Mar-03 12:22N 43°20' E 004°14'4 3.9
2015-Mar-03 11:26N 43°18' E 004°18'2 2.4
2015-Mar-03 10:28N 43°18' E 004°15'3 3.5
2015-Mar-03 09:33N 43°17' E 004°19'5 2.1
2015-Mar-03 07:13N 43°17' E 004°26'3 4.1
2015-Mar-03 06:28N 43°17' E 004°22'18 1.3
2015-Mar-02 16:14N 43°32' E 004°08'5 6.8
2015-Mar-02 15:26N 43°26' E 004°06'5 5.4
2015-Mar-02 14:26N 43°21' E 004°09'4 3.8
2015-Mar-02 13:28N 43°20' E 004°13'4 4.0
2015-Mar-02 12:33N 43°18' E 004°18'4 3.8
2015-Mar-02 11:24N 43°17' E 004°24'2 2.0
2015-Mar-02 10:30N 43°16' E 004°26'4 4.0
2015-Mar-02 09:31N 43°16' E 004°31'1 0.6
2015-Mar-02 08:05N 43°16' E 004°32'2 3.4
2015-Mar-02 07:31N 43°16' E 004°29'4 4.0
2015-Mar-02 06:25N 43°17' E 004°23'  
2015-Feb-26 15:24N 43°27' E 004°06'7 6.5
2015-Feb-26 14:21N 43°21' E 004°09'4 4.1
2015-Feb-26 13:22N 43°19' E 004°13'4 4.0
2015-Feb-26 12:21N 43°17' E 004°18'4 3.9
2015-Feb-26 11:28N 43°16' E 004°23'8 3.4
2015-Feb-26 09:08N 43°13' E 004°33'3 4.0
2015-Feb-26 08:28N 43°12' E 004°30'3 2.7
2015-Feb-26 07:21N 43°14' E 004°26'4 3.9
2015-Feb-26 06:20N 43°16' E 004°22'18 1.2
2015-Feb-25 15:25N 43°30' E 004°06'8 7.8
2015-Feb-25 14:22N 43°22' E 004°05'4 3.4
2015-Feb-25 13:19N 43°22' E 003°60'4 3.9
2015-Feb-25 12:16N 43°22' E 003°54'2 3.5
2015-Feb-25 11:33N 43°22' E 003°51'3 3.0
2015-Feb-25 10:27N 43°23' E 003°56'5 4.0
2015-Feb-25 09:13N 43°22' E 004°03'3 3.6
2015-Feb-25 08:21N 43°21' E 004°07'10 0.6
2015-Feb-24 15:06N 43°31' E 004°06'6 8.9
2015-Feb-24 14:25N 43°25' E 004°09'3 3.1
2015-Feb-24 13:23N 43°24' E 004°13'4 3.9
2015-Feb-24 12:29N 43°24' E 004°18'4 3.9
2015-Feb-24 11:29N 43°22' E 004°23'2 2.4
2015-Feb-24 10:28N 43°21' E 004°26'4 3.8
2015-Feb-24 09:28N 43°23' E 004°21'2 2.1
2015-Feb-24 08:29N 43°24' E 004°23'14 2.3
2015-Feb-24 02:14N 43°31' E 004°06'2 0.2
2015-Feb-23 15:27N 43°29' E 004°07'1010.9
2015-Feb-23 14:33N 43°19' E 004°11'5 3.8
2015-Feb-23 13:20N 43°16' E 004°15'3 3.9
2015-Feb-23 12:29N 43°14' E 004°19'4 3.9
2015-Feb-23 11:22N 43°11' E 004°24'1 1.4
2015-Feb-23 10:33N 43°11' E 004°25'5 3.8
2015-Feb-23 09:19N 43°09' E 004°31'3 2.9
2015-Feb-23 08:19N 43°11' E 004°28'7 3.7
2015-Feb-23 06:22N 43°15' E 004°20'  
Track history (hours):
 
Tides and Currents Weather Stations Pressure Air Temp Water Temp Dewpoint Dewpoint Depression Visibility Wind Speed Wind Dir Waves Ship Positions

F/V Barracuda II

Last reported at 2015-Mar-04 10:22 UTC. Time now 2015-Mar-04 11:20 UTC.
Position N 43°17' E 004°15'.

Length 23 m.

Type: Fishing. MMSI: 228236800.

Date/timePositionNaut miles runAvg speedWind from/ knotsBaromVisibWave heightAir tempDewpointWater temp
2015-Mar-04 10:22N 43°17' E 004°15'4 4.0
2015-Mar-04 09:25N 43°16' E 004°20'4 4.1
2015-Mar-04 08:30N 43°16' E 004°25'2 1.8
2015-Mar-04 07:28N 43°15' E 004°27'5 4.2
2015-Mar-04 06:15N 43°16' E 004°20'18 1.2
2015-Mar-03 15:33N 43°32' E 004°07'8 8.2
2015-Mar-03 14:31N 43°24' E 004°04'5 3.9
2015-Mar-03 13:10N 43°22' E 004°11'3 3.9
2015-Mar-03 12:22N 43°20' E 004°14'4 3.9
2015-Mar-03 11:26N 43°18' E 004°18'2 2.4
2015-Mar-03 10:28N 43°18' E 004°15'3 3.5
2015-Mar-03 09:33N 43°17' E 004°19'5 2.1
2015-Mar-03 07:13N 43°17' E 004°26'3 4.1
2015-Mar-03 06:28N 43°17' E 004°22'18 1.3
2015-Mar-02 16:14N 43°32' E 004°08'5 6.8
2015-Mar-02 15:26N 43°26' E 004°06'5 5.4
2015-Mar-02 14:26N 43°21' E 004°09'4 3.8
2015-Mar-02 13:28N 43°20' E 004°13'4 4.0
2015-Mar-02 12:33N 43°18' E 004°18'4 3.8
2015-Mar-02 11:24N 43°17' E 004°24'2 2.0
2015-Mar-02 10:30N 43°16' E 004°26'4 4.0
2015-Mar-02 09:31N 43°16' E 004°31'1 0.6
2015-Mar-02 08:05N 43°16' E 004°32'2 3.4
2015-Mar-02 07:31N 43°16' E 004°29'4 4.0
2015-Mar-02 06:25N 43°17' E 004°23'  
2015-Feb-26 15:24N 43°27' E 004°06'7 6.5
2015-Feb-26 14:21N 43°21' E 004°09'4 4.1
2015-Feb-26 13:22N 43°19' E 004°13'4 4.0
2015-Feb-26 12:21N 43°17' E 004°18'4 3.9
2015-Feb-26 11:28N 43°16' E 004°23'8 3.4
2015-Feb-26 09:08N 43°13' E 004°33'3 4.0
2015-Feb-26 08:28N 43°12' E 004°30'3 2.7
2015-Feb-26 07:21N 43°14' E 004°26'4 3.9
2015-Feb-26 06:20N 43°16' E 004°22'18 1.2
2015-Feb-25 15:25N 43°30' E 004°06'8 7.8
2015-Feb-25 14:22N 43°22' E 004°05'4 3.4
2015-Feb-25 13:19N 43°22' E 003°60'4 3.9
2015-Feb-25 12:16N 43°22' E 003°54'2 3.5
2015-Feb-25 11:33N 43°22' E 003°51'3 3.0
2015-Feb-25 10:27N 43°23' E 003°56'5 4.0
2015-Feb-25 09:13N 43°22' E 004°03'3 3.6
2015-Feb-25 08:21N 43°21' E 004°07'10 0.6
2015-Feb-24 15:06N 43°31' E 004°06'6 8.9
2015-Feb-24 14:25N 43°25' E 004°09'3 3.1
2015-Feb-24 13:23N 43°24' E 004°13'4 3.9
2015-Feb-24 12:29N 43°24' E 004°18'4 3.9
2015-Feb-24 11:29N 43°22' E 004°23'2 2.4
2015-Feb-24 10:28N 43°21' E 004°26'4 3.8
2015-Feb-24 09:28N 43°23' E 004°21'2 2.1
2015-Feb-24 08:29N 43°24' E 004°23'14 2.3
2015-Feb-24 02:14N 43°31' E 004°06'2 0.2
2015-Feb-23 15:27N 43°29' E 004°07'1010.9
2015-Feb-23 14:33N 43°19' E 004°11'5 3.8
2015-Feb-23 13:20N 43°16' E 004°15'3 3.9
2015-Feb-23 12:29N 43°14' E 004°19'4 3.9
2015-Feb-23 11:22N 43°11' E 004°24'1 1.4
2015-Feb-23 10:33N 43°11' E 004°25'5 3.8
2015-Feb-23 09:19N 43°09' E 004°31'3 2.9
2015-Feb-23 08:19N 43°11' E 004°28'7 3.7
2015-Feb-23 06:22N 43°15' E 004°20'  

Dump ship's entire track history